Bookmark and Share
Track history (hours):
 

Nocc Caspian

Last reported at 2014-Apr-18 07:11 UTC. Time now 2014-Apr-19 09:27 UTC.
Position N 37°35' W 123°35'.

Length 184 m; draft 7.2 m.

Type: Cargo ship. MMSI: 538004728.

NotesDate/timePositionNaut miles runAvg speedWind from/ knotsBaromVisibWave heightAir tempDewpointWater temp
2014-Apr-18 07:11N 37°35' W 123°35'813.1
2014-Apr-18 06:33N 37°35' W 123°25'1313.3
2014-Apr-18 05:33N 37°34' W 123°08'1414.3
2014-Apr-18 04:33N 37°40' W 122°52'1212.4
2014-Apr-18 03:34N 37°46' W 122°38'1312.7
2014-Apr-18 02:33N 37°55' W 122°27'1413.6
2014-Apr-18 01:33N 38°04' W 122°13'4 0.2
2014-Apr-17 08:20N 38°02' W 122°08'6 7.8
2014-Apr-17 07:33N 38°04' W 122°16'1313.2
2014-Apr-17 06:34N 37°53' W 122°26'1413.6
2014-Apr-17 05:34N 37°45' W 122°39'8 7.9
2014-Apr-17 04:33N 37°40' W 122°48'10 9.9
2014-Apr-17 03:34N 37°35' W 122°58'1110.5
2014-Apr-17 02:33N 37°25' W 123°02'1111.0
2014-Apr-17 01:32N 37°13' W 123°01'1211.8
2014-Apr-17 00:33N 37°02' W 122°59'1212.0
2014-Apr-16 23:33N 36°50' W 122°58'1111.3
2014-Apr-16 22:33N 36°39' W 122°54'1111.2
2014-Apr-16 21:33N 36°30' W 122°46'1211.6
2014-Apr-16 20:33N 36°20' W 122°39'1111.6
2014-Apr-16 19:33N 36°10' W 122°31'1211.9
2014-Apr-16 18:33N 36°00' W 122°23'1111.4
2014-Apr-16 17:33N 35°50' W 122°16'1211.6
2014-Apr-16 16:33N 35°40' W 122°09'1111.5
2014-Apr-16 15:33N 35°30' W 122°02'1212.3
2014-Apr-16 14:33N 35°20' W 121°54'1313.0
2014-Apr-16 13:33N 35°09' W 121°46'1312.8
2014-Apr-16 12:33N 34°58' W 121°37'1713.0
2014-Apr-16 11:13N 34°43' W 121°25'2512.4
2014-Apr-16 09:12N 34°28' W 121°02'913.0
2014-Apr-16 08:32N 34°26' W 120°52'1010.6
2014-Apr-16 07:32N 34°23' W 120°39'1110.8
2014-Apr-16 06:32N 34°20' W 120°27'1210.0
2014-Apr-16 05:18N 34°17' W 120°12'1411.0
2014-Apr-16 04:03N 34°14' W 119°56'1610.5
2014-Apr-16 02:33N 34°09' W 119°38'1110.7
2014-Apr-16 01:33N 34°07' W 119°26'9 8.7
2014-Apr-16 00:33N 34°06' W 119°15'4 3.6
2014-Apr-15 23:32N 34°09' W 119°12'0 0.0
2014-Apr-15 22:29N 34°09' W 119°12'0 0.0
2014-Apr-15 21:32N 34°09' W 119°12'0 0.0
2014-Apr-15 20:32N 34°09' W 119°12'0 0.0
2014-Apr-15 19:29N 34°09' W 119°12'0 0.0
2014-Apr-15 18:29N 34°09' W 119°12'0 0.0
2014-Apr-15 17:29N 34°09' W 119°12'0 0.0
2014-Apr-15 16:32N 34°09' W 119°12'0 0.0
2014-Apr-15 15:32N 34°09' W 119°12'0 0.0
2014-Apr-15 14:32N 34°09' W 119°12'0 0.0
2014-Apr-15 12:32N 34°09' W 119°12'0 0.4
2014-Apr-15 11:34N 34°09' W 119°13'6 6.2
2014-Apr-15 10:34N 34°03' W 119°14'7 7.3
2014-Apr-15 09:33N 33°57' W 119°09'1110.5
2014-Apr-15 08:32N 33°48' W 119°01'1515.1
2014-Apr-15 07:34N 33°36' W 118°51'1615.6
2014-Apr-15 06:34N 33°24' W 118°40'1515.4
2014-Apr-15 05:34N 33°11' W 118°29'3015.2
2014-Apr-15 03:34N 32°50' W 118°04'1615.5
2014-Apr-15 02:34N 32°39' W 117°50'1514.7
2014-Apr-15 01:34N 32°37' W 117°33'1514.9
2014-Apr-15 00:34N 32°37' W 117°15'7 6.8
2014-Apr-14 23:34N 32°41' W 117°09'3 3.1
2014-Apr-14 22:32N 32°39' W 117°07'0 0.0
2014-Apr-14 21:32N 32°39' W 117°07'0 0.0
2014-Apr-14 20:33N 32°39' W 117°07'0 0.0
2014-Apr-14 19:32N 32°39' W 117°07'0 0.0
2014-Apr-14 18:32N 32°39' W 117°07'0 0.0
2014-Apr-14 17:32N 32°39' W 117°07'0 0.0
2014-Apr-14 16:32N 32°39' W 117°07'0 0.0
2014-Apr-14 15:32N 32°39' W 117°07'0 0.0
2014-Apr-14 14:32N 32°39' W 117°07'0 0.0
2014-Apr-14 13:32N 32°39' W 117°07'0 0.0
2014-Apr-14 11:32N 32°39' W 117°07'0 0.0
2014-Apr-14 10:32N 32°39' W 117°07'0 0.0
2014-Apr-14 09:32N 32°39' W 117°07'0 0.0
2014-Apr-14 08:32N 32°39' W 117°07'0 0.0
2014-Apr-14 07:32N 32°39' W 117°07'0 0.0
2014-Apr-14 06:32N 32°39' W 117°07'0 0.0
2014-Apr-14 05:32N 32°39' W 117°07'77 8.3
2014-Apr-13 20:18N 32°40' W 118°38'1216.6
2014-Apr-13 19:33N 32°45' W 118°52'  

Dump ship's entire track history

sailing weather and tide predictions

Nocc Caspian — V7YT4 — position and weather